sensor_id;sensor_type;location;lat;lon;timestamp;temperature;humidity
563;DHT22;266;49.514;8.294;2023-04-06T00:02:18;0.80;99.90
563;DHT22;266;49.514;8.294;2023-04-06T00:04:46;0.80;99.90
563;DHT22;266;49.514;8.294;2023-04-06T00:07:14;0.80;99.90
563;DHT22;266;49.514;8.294;2023-04-06T00:09:44;0.70;99.90
563;DHT22;266;49.514;8.294;2023-04-06T00:12:12;0.60;99.90
563;DHT22;266;49.514;8.294;2023-04-06T00:14:40;0.50;99.90
563;DHT22;266;49.514;8.294;2023-04-06T00:17:08;0.50;99.90
563;DHT22;266;49.514;8.294;2023-04-06T00:19:36;0.30;99.90
563;DHT22;266;49.514;8.294;2023-04-06T00:22:04;0.40;99.90
563;DHT22;266;49.514;8.294;2023-04-06T00:24:33;0.50;99.90
563;DHT22;266;49.514;8.294;2023-04-06T00:27:02;0.50;99.90
563;DHT22;266;49.514;8.294;2023-04-06T00:29:30;0.50;99.90
563;DHT22;266;49.514;8.294;2023-04-06T00:31:58;0.50;99.90
563;DHT22;266;49.514;8.294;2023-04-06T00:34:26;0.50;99.90
563;DHT22;266;49.514;8.294;2023-04-06T00:36:54;0.50;99.90
563;DHT22;266;49.514;8.294;2023-04-06T00:39:22;0.50;99.90
563;DHT22;266;49.514;8.294;2023-04-06T00:41:51;0.50;99.90
563;DHT22;266;49.514;8.294;2023-04-06T00:44:21;0.50;99.90
563;DHT22;266;49.514;8.294;2023-04-06T00:46:49;0.40;99.90
563;DHT22;266;49.514;8.294;2023-04-06T00:49:18;0.40;99.90
563;DHT22;266;49.514;8.294;2023-04-06T00:51:46;0.40;99.90
563;DHT22;266;49.514;8.294;2023-04-06T00:54:14;0.40;99.90
563;DHT22;266;49.514;8.294;2023-04-06T00:56:42;0.40;99.90
563;DHT22;266;49.514;8.294;2023-04-06T00:59:11;0.50;99.90
563;DHT22;266;49.514;8.294;2023-04-06T01:01:41;0.50;99.90
563;DHT22;266;49.514;8.294;2023-04-06T01:04:09;0.50;99.90
563;DHT22;266;49.514;8.294;2023-04-06T01:06:37;0.60;99.90
563;DHT22;266;49.514;8.294;2023-04-06T01:09:05;0.60;99.90
563;DHT22;266;49.514;8.294;2023-04-06T01:11:35;0.60;99.90
563;DHT22;266;49.514;8.294;2023-04-06T01:14:03;0.70;99.90
563;DHT22;266;49.514;8.294;2023-04-06T01:16:31;0.70;99.90
563;DHT22;266;49.514;8.294;2023-04-06T01:19:01;0.80;99.90
563;DHT22;266;49.514;8.294;2023-04-06T01:21:29;0.80;99.90
563;DHT22;266;49.514;8.294;2023-04-06T01:23:59;0.80;99.90
563;DHT22;266;49.514;8.294;2023-04-06T01:26:27;0.80;99.90
563;DHT22;266;49.514;8.294;2023-04-06T01:28:56;0.80;99.90
563;DHT22;266;49.514;8.294;2023-04-06T01:31:24;0.80;99.90
563;DHT22;266;49.514;8.294;2023-04-06T01:33:53;0.80;99.90
563;DHT22;266;49.514;8.294;2023-04-06T01:36:21;0.80;99.90
563;DHT22;266;49.514;8.294;2023-04-06T01:38:49;0.60;99.90
563;DHT22;266;49.514;8.294;2023-04-06T01:41:19;0.50;99.90
563;DHT22;266;49.514;8.294;2023-04-06T01:43:48;0.40;99.90
563;DHT22;266;49.514;8.294;2023-04-06T01:46:16;0.40;99.90
563;DHT22;266;49.514;8.294;2023-04-06T01:48:44;0.50;99.90
563;DHT22;266;49.514;8.294;2023-04-06T01:51:12;0.40;99.90
563;DHT22;266;49.514;8.294;2023-04-06T01:53:40;0.50;99.90
563;DHT22;266;49.514;8.294;2023-04-06T01:56:08;0.50;99.90
563;DHT22;266;49.514;8.294;2023-04-06T01:58:38;0.50;99.90
563;DHT22;266;49.514;8.294;2023-04-06T02:01:06;0.50;99.90
563;DHT22;266;49.514;8.294;2023-04-06T02:03:34;0.50;99.90
563;DHT22;266;49.514;8.294;2023-04-06T02:06:02;0.50;99.90
563;DHT22;266;49.514;8.294;2023-04-06T02:08:30;0.40;99.90
563;DHT22;266;49.514;8.294;2023-04-06T02:10:58;0.40;99.90
563;DHT22;266;49.514;8.294;2023-04-06T02:13:26;0.30;99.90
563;DHT22;266;49.514;8.294;2023-04-06T02:15:56;0.30;99.90
563;DHT22;266;49.514;8.294;2023-04-06T02:18:24;0.20;99.90
563;DHT22;266;49.514;8.294;2023-04-06T02:20:52;0.10;99.90
563;DHT22;266;49.514;8.294;2023-04-06T02:23:21;0.00;99.90
563;DHT22;266;49.514;8.294;2023-04-06T02:25:49;-0.10;99.90
563;DHT22;266;49.514;8.294;2023-04-06T02:28:16;-0.10;99.90
563;DHT22;266;49.514;8.294;2023-04-06T02:30:45;-0.20;99.90
563;DHT22;266;49.514;8.294;2023-04-06T02:33:14;-0.20;99.90
563;DHT22;266;49.514;8.294;2023-04-06T02:35:44;-0.30;99.90
563;DHT22;266;49.514;8.294;2023-04-06T02:38:13;-0.30;99.90
563;DHT22;266;49.514;8.294;2023-04-06T02:40:41;-0.30;99.90
563;DHT22;266;49.514;8.294;2023-04-06T02:43:08;-0.20;99.90
563;DHT22;266;49.514;8.294;2023-04-06T02:45:36;-0.20;99.90
563;DHT22;266;49.514;8.294;2023-04-06T02:48:05;-0.30;99.90
563;DHT22;266;49.514;8.294;2023-04-06T02:50:34;-0.30;99.90
563;DHT22;266;49.514;8.294;2023-04-06T02:53:02;-0.40;99.90
563;DHT22;266;49.514;8.294;2023-04-06T02:55:31;-0.40;99.90
563;DHT22;266;49.514;8.294;2023-04-06T02:57:59;-0.40;99.90
563;DHT22;266;49.514;8.294;2023-04-06T03:00:27;-0.50;99.90
563;DHT22;266;49.514;8.294;2023-04-06T03:02:55;-0.50;99.90
563;DHT22;266;49.514;8.294;2023-04-06T03:05:23;-0.50;99.90
563;DHT22;266;49.514;8.294;2023-04-06T03:07:52;-0.50;99.90
563;DHT22;266;49.514;8.294;2023-04-06T03:10:20;-0.50;99.90
563;DHT22;266;49.514;8.294;2023-04-06T03:12:48;-0.40;99.90
563;DHT22;266;49.514;8.294;2023-04-06T03:15:17;-0.50;99.90
563;DHT22;266;49.514;8.294;2023-04-06T03:17:45;-0.40;99.90
563;DHT22;266;49.514;8.294;2023-04-06T03:20:13;-0.40;99.90
563;DHT22;266;49.514;8.294;2023-04-06T03:22:41;-0.40;99.90
563;DHT22;266;49.514;8.294;2023-04-06T03:25:11;-0.40;99.90
563;DHT22;266;49.514;8.294;2023-04-06T03:27:39;-0.60;99.90
563;DHT22;266;49.514;8.294;2023-04-06T03:30:08;-0.60;99.90
563;DHT22;266;49.514;8.294;2023-04-06T03:32:36;-0.60;99.90
563;DHT22;266;49.514;8.294;2023-04-06T03:35:04;-0.60;99.90
563;DHT22;266;49.514;8.294;2023-04-06T03:37:32;-0.60;99.90
563;DHT22;266;49.514;8.294;2023-04-06T03:40:00;-0.70;99.90
563;DHT22;266;49.514;8.294;2023-04-06T03:42:30;-0.70;99.90
563;DHT22;266;49.514;8.294;2023-04-06T03:44:59;-0.70;99.90
563;DHT22;266;49.514;8.294;2023-04-06T03:47:27;-0.70;99.90
563;DHT22;266;49.514;8.294;2023-04-06T03:49:55;-0.70;99.90
563;DHT22;266;49.514;8.294;2023-04-06T03:52:23;-0.60;99.90
563;DHT22;266;49.514;8.294;2023-04-06T03:54:51;-0.60;99.90
563;DHT22;266;49.514;8.294;2023-04-06T03:57:19;-0.60;99.90
563;DHT22;266;49.514;8.294;2023-04-06T03:59:49;-0.70;99.90
563;DHT22;266;49.514;8.294;2023-04-06T04:02:16;-0.70;99.90
563;DHT22;266;49.514;8.294;2023-04-06T04:04:45;-0.60;99.90
563;DHT22;266;49.514;8.294;2023-04-06T04:07:13;-0.70;99.90
563;DHT22;266;49.514;8.294;2023-04-06T04:09:41;-0.80;99.90
563;DHT22;266;49.514;8.294;2023-04-06T04:12:09;-0.70;99.90
563;DHT22;266;49.514;8.294;2023-04-06T04:14:37;-0.80;99.90
563;DHT22;266;49.514;8.294;2023-04-06T04:17:06;-0.80;99.90
563;DHT22;266;49.514;8.294;2023-04-06T04:19:34;-0.80;99.90
563;DHT22;266;49.514;8.294;2023-04-06T04:22:02;-0.80;99.90
563;DHT22;266;49.514;8.294;2023-04-06T04:24:31;-0.80;99.90
563;DHT22;266;49.514;8.294;2023-04-06T04:26:59;-0.70;99.90
563;DHT22;266;49.514;8.294;2023-04-06T04:29:28;-0.70;99.90
563;DHT22;266;49.514;8.294;2023-04-06T04:31:56;-0.70;99.90
563;DHT22;266;49.514;8.294;2023-04-06T04:34:26;-0.70;99.90
563;DHT22;266;49.514;8.294;2023-04-06T04:36:54;-0.70;99.90
563;DHT22;266;49.514;8.294;2023-04-06T04:39:22;-0.70;99.90
563;DHT22;266;49.514;8.294;2023-04-06T04:41:50;-0.80;99.90
563;DHT22;266;49.514;8.294;2023-04-06T04:44:18;-0.90;99.90
563;DHT22;266;49.514;8.294;2023-04-06T04:46:47;-0.90;99.90
563;DHT22;266;49.514;8.294;2023-04-06T04:49:14;-1.00;99.90
563;DHT22;266;49.514;8.294;2023-04-06T04:51:44;-1.00;99.90
563;DHT22;266;49.514;8.294;2023-04-06T04:54:12;-1.00;99.90
563;DHT22;266;49.514;8.294;2023-04-06T04:56:40;-1.00;99.90
563;DHT22;266;49.514;8.294;2023-04-06T04:59:08;-1.00;99.90
563;DHT22;266;49.514;8.294;2023-04-06T05:01:36;-1.00;99.90
563;DHT22;266;49.514;8.294;2023-04-06T05:04:21;-0.90;99.90
563;DHT22;266;49.514;8.294;2023-04-06T05:07:02;-0.70;99.90
563;DHT22;266;49.514;8.294;2023-04-06T05:09:30;-0.30;99.90
563;DHT22;266;49.514;8.294;2023-04-06T05:11:58;-0.20;99.90
563;DHT22;266;49.514;8.294;2023-04-06T05:14:27;-0.10;99.90
563;DHT22;266;49.514;8.294;2023-04-06T05:16:55;0.10;99.90
563;DHT22;266;49.514;8.294;2023-04-06T05:19:23;0.00;99.90
563;DHT22;266;49.514;8.294;2023-04-06T05:21:53;0.00;99.90
563;DHT22;266;49.514;8.294;2023-04-06T05:24:21;0.00;99.90
563;DHT22;266;49.514;8.294;2023-04-06T05:26:49;0.10;99.90
563;DHT22;266;49.514;8.294;2023-04-06T05:29:18;0.20;99.90
563;DHT22;266;49.514;8.294;2023-04-06T05:31:47;0.20;99.90
563;DHT22;266;49.514;8.294;2023-04-06T05:34:15;0.30;99.90
563;DHT22;266;49.514;8.294;2023-04-06T05:36:43;0.30;99.90
563;DHT22;266;49.514;8.294;2023-04-06T05:39:12;0.40;99.90
563;DHT22;266;49.514;8.294;2023-04-06T05:41:40;0.50;99.90
563;DHT22;266;49.514;8.294;2023-04-06T05:44:08;0.50;99.90
563;DHT22;266;49.514;8.294;2023-04-06T05:46:36;0.60;99.90
563;DHT22;266;49.514;8.294;2023-04-06T05:49:04;0.70;99.90
563;DHT22;266;49.514;8.294;2023-04-06T05:51:33;0.70;99.90
563;DHT22;266;49.514;8.294;2023-04-06T05:54:01;0.80;99.90
563;DHT22;266;49.514;8.294;2023-04-06T05:56:30;0.80;99.90
563;DHT22;266;49.514;8.294;2023-04-06T05:58:58;0.90;99.90
563;DHT22;266;49.514;8.294;2023-04-06T06:01:27;0.90;99.90
563;DHT22;266;49.514;8.294;2023-04-06T06:03:55;1.00;99.90
563;DHT22;266;49.514;8.294;2023-04-06T06:06:24;1.10;99.90
563;DHT22;266;49.514;8.294;2023-04-06T06:08:52;1.20;99.90
563;DHT22;266;49.514;8.294;2023-04-06T06:11:20;1.30;99.90
563;DHT22;266;49.514;8.294;2023-04-06T06:13:50;1.40;99.90
563;DHT22;266;49.514;8.294;2023-04-06T06:16:18;1.50;99.90
563;DHT22;266;49.514;8.294;2023-04-06T06:18:46;1.50;99.90
563;DHT22;266;49.514;8.294;2023-04-06T06:21:15;1.60;99.90
563;DHT22;266;49.514;8.294;2023-04-06T06:23:43;1.70;99.90
563;DHT22;266;49.514;8.294;2023-04-06T06:26:13;1.70;99.90
563;DHT22;266;49.514;8.294;2023-04-06T06:28:42;1.80;99.90
563;DHT22;266;49.514;8.294;2023-04-06T06:31:11;1.90;99.90
563;DHT22;266;49.514;8.294;2023-04-06T06:33:39;1.90;99.90
563;DHT22;266;49.514;8.294;2023-04-06T06:36:07;2.00;99.90
563;DHT22;266;49.514;8.294;2023-04-06T06:38:35;2.10;99.90
563;DHT22;266;49.514;8.294;2023-04-06T06:41:05;2.30;99.90
563;DHT22;266;49.514;8.294;2023-04-06T06:43:33;2.40;99.90
563;DHT22;266;49.514;8.294;2023-04-06T06:46:01;2.50;99.90
563;DHT22;266;49.514;8.294;2023-04-06T06:48:30;2.70;99.90
563;DHT22;266;49.514;8.294;2023-04-06T06:50:58;2.70;99.90
563;DHT22;266;49.514;8.294;2023-04-06T06:53:26;2.80;99.90
563;DHT22;266;49.514;8.294;2023-04-06T06:55:55;2.90;99.90
563;DHT22;266;49.514;8.294;2023-04-06T06:58:22;3.00;99.90
563;DHT22;266;49.514;8.294;2023-04-06T07:00:50;3.10;99.90
563;DHT22;266;49.514;8.294;2023-04-06T07:03:23;3.20;99.90
563;DHT22;266;49.514;8.294;2023-04-06T07:05:55;3.30;99.90
563;DHT22;266;49.514;8.294;2023-04-06T07:08:24;3.40;99.90
563;DHT22;266;49.514;8.294;2023-04-06T07:10:52;3.50;99.90
563;DHT22;266;49.514;8.294;2023-04-06T07:13:23;3.60;99.90
563;DHT22;266;49.514;8.294;2023-04-06T07:15:51;3.70;99.90
563;DHT22;266;49.514;8.294;2023-04-06T07:18:20;3.80;99.90
563;DHT22;266;49.514;8.294;2023-04-06T07:20:48;3.90;99.90
563;DHT22;266;49.514;8.294;2023-04-06T07:23:17;3.90;99.90
563;DHT22;266;49.514;8.294;2023-04-06T07:25:45;4.00;99.90
563;DHT22;266;49.514;8.294;2023-04-06T07:28:13;4.10;99.90
563;DHT22;266;49.514;8.294;2023-04-06T07:30:42;4.20;99.90
563;DHT22;266;49.514;8.294;2023-04-06T07:33:10;4.40;99.90
563;DHT22;266;49.514;8.294;2023-04-06T07:35:38;4.50;99.90
563;DHT22;266;49.514;8.294;2023-04-06T07:38:06;4.60;99.90
563;DHT22;266;49.514;8.294;2023-04-06T07:40:36;4.80;99.90
563;DHT22;266;49.514;8.294;2023-04-06T07:43:04;4.90;99.90
563;DHT22;266;49.514;8.294;2023-04-06T07:45:32;5.00;99.90
563;DHT22;266;49.514;8.294;2023-04-06T07:48:00;5.10;99.90
563;DHT22;266;49.514;8.294;2023-04-06T07:50:28;5.40;99.90
563;DHT22;266;49.514;8.294;2023-04-06T07:52:56;5.70;99.90
563;DHT22;266;49.514;8.294;2023-04-06T07:55:24;6.10;99.90
563;DHT22;266;49.514;8.294;2023-04-06T07:57:53;6.50;99.90
563;DHT22;266;49.514;8.294;2023-04-06T08:00:22;6.80;99.90
563;DHT22;266;49.514;8.294;2023-04-06T08:02:50;6.80;99.90
563;DHT22;266;49.514;8.294;2023-04-06T08:05:18;7.00;99.90
563;DHT22;266;49.514;8.294;2023-04-06T08:07:46;7.10;99.90
563;DHT22;266;49.514;8.294;2023-04-06T08:10:14;7.20;99.90
563;DHT22;266;49.514;8.294;2023-04-06T08:12:42;7.30;99.90
563;DHT22;266;49.514;8.294;2023-04-06T08:15:12;7.50;99.90
563;DHT22;266;49.514;8.294;2023-04-06T08:17:40;7.90;99.90
563;DHT22;266;49.514;8.294;2023-04-06T08:20:08;8.10;99.90
563;DHT22;266;49.514;8.294;2023-04-06T08:22:36;8.30;99.90
563;DHT22;266;49.514;8.294;2023-04-06T08:25:05;8.40;99.90
563;DHT22;266;49.514;8.294;2023-04-06T08:27:33;8.50;99.90
563;DHT22;266;49.514;8.294;2023-04-06T08:30:01;8.60;99.90
563;DHT22;266;49.514;8.294;2023-04-06T08:32:31;8.80;99.90
563;DHT22;266;49.514;8.294;2023-04-06T08:34:59;9.10;99.90
563;DHT22;266;49.514;8.294;2023-04-06T08:37:27;9.10;99.90
563;DHT22;266;49.514;8.294;2023-04-06T08:39:56;9.10;99.90
563;DHT22;266;49.514;8.294;2023-04-06T08:42:25;9.20;99.90
563;DHT22;266;49.514;8.294;2023-04-06T08:44:55;9.40;99.90
563;DHT22;266;49.514;8.294;2023-04-06T08:47:23;9.40;99.90
563;DHT22;266;49.514;8.294;2023-04-06T08:49:52;9.50;99.90
563;DHT22;266;49.514;8.294;2023-04-06T08:52:21;9.70;99.90
563;DHT22;266;49.514;8.294;2023-04-06T08:54:49;9.80;99.90
563;DHT22;266;49.514;8.294;2023-04-06T08:57:18;9.90;99.90
563;DHT22;266;49.514;8.294;2023-04-06T08:59:46;10.30;99.90
563;DHT22;266;49.514;8.294;2023-04-06T09:02:18;10.20;99.90
563;DHT22;266;49.514;8.294;2023-04-06T09:04:48;10.20;99.90
563;DHT22;266;49.514;8.294;2023-04-06T09:07:18;10.40;99.90
563;DHT22;266;49.514;8.294;2023-04-06T09:09:46;10.70;99.90
563;DHT22;266;49.514;8.294;2023-04-06T09:12:33;11.00;99.90
563;DHT22;266;49.514;8.294;2023-04-06T09:15:01;11.40;99.90
563;DHT22;266;49.514;8.294;2023-04-06T09:17:31;11.60;99.90
563;DHT22;266;49.514;8.294;2023-04-06T09:20:02;11.60;99.90
563;DHT22;266;49.514;8.294;2023-04-06T09:22:39;11.40;99.90
563;DHT22;266;49.514;8.294;2023-04-06T09:25:09;11.40;99.90
563;DHT22;266;49.514;8.294;2023-04-06T09:27:37;11.40;99.90
563;DHT22;266;49.514;8.294;2023-04-06T09:30:07;11.80;99.90
563;DHT22;266;49.514;8.294;2023-04-06T09:32:47;12.00;99.90
563;DHT22;266;49.514;8.294;2023-04-06T09:35:16;12.00;99.90
563;DHT22;266;49.514;8.294;2023-04-06T09:37:46;12.10;99.90
563;DHT22;266;49.514;8.294;2023-04-06T09:40:15;12.20;99.90
563;DHT22;266;49.514;8.294;2023-04-06T09:42:46;12.50;99.90
563;DHT22;266;49.514;8.294;2023-04-06T09:45:14;12.60;99.90
563;DHT22;266;49.514;8.294;2023-04-06T09:47:44;12.70;99.90
563;DHT22;266;49.514;8.294;2023-04-06T09:50:13;12.90;99.90
563;DHT22;266;49.514;8.294;2023-04-06T09:52:46;13.20;99.90
563;DHT22;266;49.514;8.294;2023-04-06T09:55:22;13.40;99.90
563;DHT22;266;49.514;8.294;2023-04-06T09:57:57;13.50;99.90
563;DHT22;266;49.514;8.294;2023-04-06T10:00:26;13.50;99.90
563;DHT22;266;49.514;8.294;2023-04-06T10:02:59;13.70;99.90
563;DHT22;266;49.514;8.294;2023-04-06T10:05:40;13.70;99.90
563;DHT22;266;49.514;8.294;2023-04-06T10:08:11;13.60;99.90
563;DHT22;266;49.514;8.294;2023-04-06T10:10:42;13.60;99.90
563;DHT22;266;49.514;8.294;2023-04-06T10:13:11;13.60;99.90
563;DHT22;266;49.514;8.294;2023-04-06T10:15:39;13.60;99.90
563;DHT22;266;49.514;8.294;2023-04-06T10:18:08;13.50;99.90
563;DHT22;266;49.514;8.294;2023-04-06T10:20:41;13.60;99.90
563;DHT22;266;49.514;8.294;2023-04-06T10:23:13;13.70;99.90
563;DHT22;266;49.514;8.294;2023-04-06T10:25:52;13.90;99.90
563;DHT22;266;49.514;8.294;2023-04-06T10:28:21;13.80;99.90
563;DHT22;266;49.514;8.294;2023-04-06T10:30:49;13.70;99.90
563;DHT22;266;49.514;8.294;2023-04-06T10:33:24;13.70;99.90
563;DHT22;266;49.514;8.294;2023-04-06T10:35:52;13.70;99.90
563;DHT22;266;49.514;8.294;2023-04-06T10:38:33;13.70;99.90
563;DHT22;266;49.514;8.294;2023-04-06T10:41:05;13.60;99.90
563;DHT22;266;49.514;8.294;2023-04-06T10:43:34;13.80;99.90
563;DHT22;266;49.514;8.294;2023-04-06T10:46:04;13.70;99.90
563;DHT22;266;49.514;8.294;2023-04-06T10:48:40;13.60;99.90
563;DHT22;266;49.514;8.294;2023-04-06T10:51:10;13.60;99.90
563;DHT22;266;49.514;8.294;2023-04-06T10:53:41;13.60;99.90
563;DHT22;266;49.514;8.294;2023-04-06T10:56:11;13.70;99.90
563;DHT22;266;49.514;8.294;2023-04-06T10:58:44;13.60;99.90
563;DHT22;266;49.514;8.294;2023-04-06T11:01:14;13.60;99.90
563;DHT22;266;49.514;8.294;2023-04-06T11:03:43;13.50;99.90
563;DHT22;266;49.514;8.294;2023-04-06T11:06:18;13.40;99.90
563;DHT22;266;49.514;8.294;2023-04-06T11:08:48;13.40;99.90
563;DHT22;266;49.514;8.294;2023-04-06T11:11:18;13.30;99.90
563;DHT22;266;49.514;8.294;2023-04-06T11:13:48;13.20;99.90
563;DHT22;266;49.514;8.294;2023-04-06T11:16:18;13.30;99.90
563;DHT22;266;49.514;8.294;2023-04-06T11:18:51;13.60;99.90
563;DHT22;266;49.514;8.294;2023-04-06T11:21:30;13.60;99.90
563;DHT22;266;49.514;8.294;2023-04-06T11:24:08;13.70;99.90
563;DHT22;266;49.514;8.294;2023-04-06T11:26:41;13.70;99.90
563;DHT22;266;49.514;8.294;2023-04-06T11:29:11;13.60;99.90
563;DHT22;266;49.514;8.294;2023-04-06T11:31:44;13.60;99.90
563;DHT22;266;49.514;8.294;2023-04-06T11:34:16;13.70;99.90
563;DHT22;266;49.514;8.294;2023-04-06T11:36:45;13.80;99.90
563;DHT22;266;49.514;8.294;2023-04-06T11:39:22;13.80;99.90
563;DHT22;266;49.514;8.294;2023-04-06T11:41:52;14.00;99.90
563;DHT22;266;49.514;8.294;2023-04-06T11:44:32;14.10;99.90
563;DHT22;266;49.514;8.294;2023-04-06T11:47:01;14.10;99.90
563;DHT22;266;49.514;8.294;2023-04-06T11:49:31;14.20;99.90
563;DHT22;266;49.514;8.294;2023-04-06T11:52:00;14.30;99.90
563;DHT22;266;49.514;8.294;2023-04-06T11:54:34;14.40;99.90
563;DHT22;266;49.514;8.294;2023-04-06T11:57:03;14.10;99.90
563;DHT22;266;49.514;8.294;2023-04-06T11:59:32;13.90;99.90
563;DHT22;266;49.514;8.294;2023-04-06T12:02:01;13.90;99.90
563;DHT22;266;49.514;8.294;2023-04-06T12:04:29;13.90;99.90
563;DHT22;266;49.514;8.294;2023-04-06T12:06:58;13.90;99.90
563;DHT22;266;49.514;8.294;2023-04-06T12:09:26;14.10;99.90
563;DHT22;266;49.514;8.294;2023-04-06T12:11:56;14.30;99.90
563;DHT22;266;49.514;8.294;2023-04-06T12:14:24;14.40;99.90
563;DHT22;266;49.514;8.294;2023-04-06T12:16:52;14.30;99.90
563;DHT22;266;49.514;8.294;2023-04-06T12:19:20;14.50;99.90
563;DHT22;266;49.514;8.294;2023-04-06T12:21:52;14.80;99.90
563;DHT22;266;49.514;8.294;2023-04-06T12:24:21;14.80;99.90
563;DHT22;266;49.514;8.294;2023-04-06T12:26:49;14.60;99.90
563;DHT22;266;49.514;8.294;2023-04-06T12:29:33;14.50;99.90
563;DHT22;266;49.514;8.294;2023-04-06T12:32:01;14.70;99.90
563;DHT22;266;49.514;8.294;2023-04-06T12:34:29;14.80;99.90
563;DHT22;266;49.514;8.294;2023-04-06T12:36:57;14.70;99.90
563;DHT22;266;49.514;8.294;2023-04-06T12:39:27;14.60;99.90
563;DHT22;266;49.514;8.294;2023-04-06T12:41:55;14.60;99.90
563;DHT22;266;49.514;8.294;2023-04-06T12:44:24;14.80;99.90
563;DHT22;266;49.514;8.294;2023-04-06T12:46:54;14.80;99.90
563;DHT22;266;49.514;8.294;2023-04-06T12:49:23;14.60;99.90
563;DHT22;266;49.514;8.294;2023-04-06T12:51:51;14.50;99.90
563;DHT22;266;49.514;8.294;2023-04-06T12:54:19;14.50;99.90
563;DHT22;266;49.514;8.294;2023-04-06T12:56:47;14.40;99.90
563;DHT22;266;49.514;8.294;2023-04-06T12:59:15;14.30;99.90
563;DHT22;266;49.514;8.294;2023-04-06T13:01:44;14.30;99.90
563;DHT22;266;49.514;8.294;2023-04-06T13:04:13;14.30;99.90
563;DHT22;266;49.514;8.294;2023-04-06T13:06:41;14.40;99.90
563;DHT22;266;49.514;8.294;2023-04-06T13:09:09;14.30;99.90
563;DHT22;266;49.514;8.294;2023-04-06T13:11:38;14.30;99.90
563;DHT22;266;49.514;8.294;2023-04-06T13:14:08;14.10;99.90
563;DHT22;266;49.514;8.294;2023-04-06T13:16:36;14.00;99.90
563;DHT22;266;49.514;8.294;2023-04-06T13:19:04;13.90;99.90
563;DHT22;266;49.514;8.294;2023-04-06T13:21:33;13.90;99.90
563;DHT22;266;49.514;8.294;2023-04-06T13:24:01;13.80;99.90
563;DHT22;266;49.514;8.294;2023-04-06T13:26:29;13.80;99.90
563;DHT22;266;49.514;8.294;2023-04-06T13:28:59;13.80;99.90
563;DHT22;266;49.514;8.294;2023-04-06T13:31:27;13.90;99.90
563;DHT22;266;49.514;8.294;2023-04-06T13:33:55;14.10;99.90
563;DHT22;266;49.514;8.294;2023-04-06T13:36:23;14.00;99.90
563;DHT22;266;49.514;8.294;2023-04-06T13:38:53;14.00;99.90
563;DHT22;266;49.514;8.294;2023-04-06T13:41:24;13.90;99.90
563;DHT22;266;49.514;8.294;2023-04-06T13:43:53;13.90;99.90
563;DHT22;266;49.514;8.294;2023-04-06T13:46:21;14.00;99.90
563;DHT22;266;49.514;8.294;2023-04-06T13:48:50;14.00;99.90
563;DHT22;266;49.514;8.294;2023-04-06T13:51:18;14.00;99.90
563;DHT22;266;49.514;8.294;2023-04-06T13:53:46;14.00;99.90
563;DHT22;266;49.514;8.294;2023-04-06T13:56:18;14.10;99.90
563;DHT22;266;49.514;8.294;2023-04-06T13:58:46;14.10;99.90
563;DHT22;266;49.514;8.294;2023-04-06T14:01:14;14.20;99.90
563;DHT22;266;49.514;8.294;2023-04-06T14:03:42;14.10;99.90
563;DHT22;266;49.514;8.294;2023-04-06T14:06:14;14.20;99.90
563;DHT22;266;49.514;8.294;2023-04-06T14:08:45;14.20;99.90
563;DHT22;266;49.514;8.294;2023-04-06T14:11:13;14.20;99.90
563;DHT22;266;49.514;8.294;2023-04-06T14:13:43;14.30;99.90
563;DHT22;266;49.514;8.294;2023-04-06T14:16:11;14.30;99.90
563;DHT22;266;49.514;8.294;2023-04-06T14:18:39;14.30;99.90
563;DHT22;266;49.514;8.294;2023-04-06T14:21:07;14.40;99.90
563;DHT22;266;49.514;8.294;2023-04-06T14:23:35;14.30;99.90
563;DHT22;266;49.514;8.294;2023-04-06T14:26:04;14.20;99.90
563;DHT22;266;49.514;8.294;2023-04-06T14:28:32;14.20;99.90
563;DHT22;266;49.514;8.294;2023-04-06T14:31:09;14.20;99.90
563;DHT22;266;49.514;8.294;2023-04-06T14:33:38;14.10;99.90
563;DHT22;266;49.514;8.294;2023-04-06T14:36:07;14.20;99.90
563;DHT22;266;49.514;8.294;2023-04-06T14:38:35;14.20;99.90
563;DHT22;266;49.514;8.294;2023-04-06T14:41:03;14.30;99.90
563;DHT22;266;49.514;8.294;2023-04-06T14:43:31;14.20;99.90
563;DHT22;266;49.514;8.294;2023-04-06T14:46:01;14.10;99.90
563;DHT22;266;49.514;8.294;2023-04-06T14:48:29;14.10;99.90
563;DHT22;266;49.514;8.294;2023-04-06T14:50:57;14.10;99.90
563;DHT22;266;49.514;8.294;2023-04-06T14:53:26;14.10;99.90
563;DHT22;266;49.514;8.294;2023-04-06T14:55:55;14.10;99.90
563;DHT22;266;49.514;8.294;2023-04-06T14:58:24;14.00;99.90
563;DHT22;266;49.514;8.294;2023-04-06T15:00:55;14.10;99.90
563;DHT22;266;49.514;8.294;2023-04-06T15:03:25;14.20;99.90
563;DHT22;266;49.514;8.294;2023-04-06T15:05:53;14.20;99.90
563;DHT22;266;49.514;8.294;2023-04-06T15:08:21;14.20;99.90
563;DHT22;266;49.514;8.294;2023-04-06T15:10:50;14.20;99.90
563;DHT22;266;49.514;8.294;2023-04-06T15:13:18;14.30;99.90
563;DHT22;266;49.514;8.294;2023-04-06T15:15:46;14.30;99.90
563;DHT22;266;49.514;8.294;2023-04-06T15:18:18;14.20;99.90
563;DHT22;266;49.514;8.294;2023-04-06T15:20:47;14.30;99.90
563;DHT22;266;49.514;8.294;2023-04-06T15:23:15;14.20;99.90
563;DHT22;266;49.514;8.294;2023-04-06T15:25:44;14.20;99.90
563;DHT22;266;49.514;8.294;2023-04-06T15:28:11;14.20;99.90
563;DHT22;266;49.514;8.294;2023-04-06T15:30:39;14.10;99.90
563;DHT22;266;49.514;8.294;2023-04-06T15:33:08;14.00;99.90
563;DHT22;266;49.514;8.294;2023-04-06T15:35:36;14.00;99.90
563;DHT22;266;49.514;8.294;2023-04-06T15:38:07;13.90;99.90
563;DHT22;266;49.514;8.294;2023-04-06T15:40:42;13.90;99.90
563;DHT22;266;49.514;8.294;2023-04-06T15:43:10;14.00;99.90
563;DHT22;266;49.514;8.294;2023-04-06T15:45:38;13.80;99.90
563;DHT22;266;49.514;8.294;2023-04-06T15:48:07;13.80;99.90
563;DHT22;266;49.514;8.294;2023-04-06T15:50:35;13.70;99.90
563;DHT22;266;49.514;8.294;2023-04-06T15:53:03;13.70;99.90
563;DHT22;266;49.514;8.294;2023-04-06T15:55:33;13.60;99.90
563;DHT22;266;49.514;8.294;2023-04-06T15:58:01;13.50;99.90
563;DHT22;266;49.514;8.294;2023-04-06T16:00:29;13.50;99.90
563;DHT22;266;49.514;8.294;2023-04-06T16:02:57;13.50;99.90
563;DHT22;266;49.514;8.294;2023-04-06T16:05:25;13.60;99.90
563;DHT22;266;49.514;8.294;2023-04-06T16:07:59;13.60;99.90
563;DHT22;266;49.514;8.294;2023-04-06T16:10:27;13.60;99.90
563;DHT22;266;49.514;8.294;2023-04-06T16:12:59;13.60;99.90
563;DHT22;266;49.514;8.294;2023-04-06T16:15:28;13.50;99.90
563;DHT22;266;49.514;8.294;2023-04-06T16:17:55;13.50;99.90
563;DHT22;266;49.514;8.294;2023-04-06T16:20:23;13.50;99.90
563;DHT22;266;49.514;8.294;2023-04-06T16:22:51;13.40;99.90
563;DHT22;266;49.514;8.294;2023-04-06T16:25:19;13.40;99.90
563;DHT22;266;49.514;8.294;2023-04-06T16:27:47;13.40;99.90
563;DHT22;266;49.514;8.294;2023-04-06T16:30:16;13.40;99.90
563;DHT22;266;49.514;8.294;2023-04-06T16:32:44;13.30;99.90
563;DHT22;266;49.514;8.294;2023-04-06T16:35:14;13.20;99.90
563;DHT22;266;49.514;8.294;2023-04-06T16:37:42;13.10;99.90
563;DHT22;266;49.514;8.294;2023-04-06T16:40:12;13.00;99.90
563;DHT22;266;49.514;8.294;2023-04-06T16:42:41;12.90;99.90
563;DHT22;266;49.514;8.294;2023-04-06T16:45:10;13.10;99.90
563;DHT22;266;49.514;8.294;2023-04-06T16:47:39;13.10;99.90
563;DHT22;266;49.514;8.294;2023-04-06T16:50:08;13.00;99.90
563;DHT22;266;49.514;8.294;2023-04-06T16:52:36;12.90;99.90
563;DHT22;266;49.514;8.294;2023-04-06T16:55:05;12.80;99.90